Time;durP1;ratioP1;P1;durP2;ratioP2;P2;SDS_P1;SDS_P2;PMS_P1;PMS_P2;Temp;Humidity;BMP_temperature;BMP_pressure;BME280_temperature;BME280_humidity;BME280_pressure;Samples;Min_cycle;Max_cycle;Signal;HPM_P1;HPM_P2
2021/08/25 00:02:41;;;;;;;;;;;;;;;15.83;68.21;100840.31;4964126;28;19976;-62
2021/08/25 00:05:28;;;;;;;;;;;;;;;15.82;68.14;100841.16;4964260;28;19929;-63
2021/08/25 00:08:26;;;;;;;;;;;;;;;15.82;68.15;100838.56;4978501;28;19970;-62
2021/08/25 00:11:21;;;;;;;;;;;;;;;15.80;68.03;100840.28;4964208;28;20012;-62
2021/08/25 00:14:14;;;;;;;;;;;;;;;15.81;68.23;100843.78;4963617;28;20447;-63
2021/08/25 00:17:04;;;;;;;;;;;;;;;15.80;68.00;100839.41;4963587;28;20004;-63
2021/08/25 00:19:48;;;;;;;;;;;;;;;15.78;68.19;100833.31;4963799;28;20008;-61
2021/08/25 00:22:32;;;;;;;;;;;;;;;15.76;68.21;100838.53;4963631;28;20345;-63
2021/08/25 00:25:27;;;;;;;;;;;;;;;15.75;67.91;100831.56;4978887;28;19973;-63
2021/08/25 00:28:22;;;;;;;;;;;;;;;15.74;68.09;100834.13;4963902;28;19941;-63
2021/08/25 00:31:14;;;;;;;;;;;;;;;15.71;68.18;100821.94;4978509;28;20392;-63
2021/08/25 00:34:07;;;;;;;;;;;;;;;15.70;68.18;100822.78;4963760;28;19968;-63
2021/08/25 00:36:59;;;;;;;;;;;;;;;15.68;68.43;100820.19;4963682;28;19995;-63
2021/08/25 00:39:52;;;;;;;;;;;;;;;15.68;68.19;100816.69;4964036;28;19972;-63
2021/08/25 00:42:44;;;;;;;;;;;;;;;15.66;67.93;100818.41;4978489;28;19924;-63
2021/08/25 00:45:28;;;;;;;;;;;;;;;15.64;68.10;100813.19;4978128;28;19925;-62
2021/08/25 00:48:21;;;;;;;;;;;;;;;15.64;68.10;100812.31;4963332;28;19972;-63
2021/08/25 00:51:11;;;;;;;;;;;;;;;15.64;68.25;100813.19;4963484;28;19976;-63
2021/08/25 00:54:00;;;;;;;;;;;;;;;15.63;68.23;100803.59;4963080;28;20025;-63
2021/08/25 00:56:54;;;;;;;;;;;;;;;15.60;68.13;100811.41;4963251;28;19984;-63
2021/08/25 00:59:46;;;;;;;;;;;;;;;15.59;68.08;100803.56;4962846;28;19976;-63
2021/08/25 01:02:49;;;;;;;;;;;;;;;15.59;68.15;100798.34;4962365;28;20017;-63
2021/08/25 01:05:47;;;;;;;;;;;;;;;15.58;68.07;100797.44;4978121;28;19964;-63
2021/08/25 01:08:31;;;;;;;;;;;;;;;15.57;68.26;100798.31;4962806;28;19925;-62
2021/08/25 01:11:15;;;;;;;;;;;;;;;15.56;68.25;100793.06;4962984;28;20009;-63
2021/08/25 01:14:00;;;;;;;;;;;;;;;15.56;68.21;100793.06;4977499;28;20029;-63
2021/08/25 01:16:47;;;;;;;;;;;;;;;15.54;68.32;100793.09;4963082;28;19969;-62
2021/08/25 01:19:50;;;;;;;;;;;;;;;15.53;68.33;100779.13;4963324;28;19925;-63
2021/08/25 01:22:40;;;;;;;;;;;;;;;15.53;68.22;100789.56;4977332;28;20037;-63
2021/08/25 01:25:30;;;;;;;;;;;;;;;15.52;68.12;100786.97;4962816;28;19968;-62
2021/08/25 01:28:17;;;;;;;;;;;;;;;15.51;68.36;100780.00;4962429;28;20373;-63
2021/08/25 01:31:04;;;;;;;;;;;;;;;15.51;68.28;100783.47;4962713;28;19925;-61
2021/08/25 01:33:53;;;;;;;;;;;;;;;15.51;68.15;100780.00;4962482;28;20005;-62
2021/08/25 01:36:37;;;;;;;;;;;;;;;15.52;68.23;100781.75;4962506;28;19925;-61
2021/08/25 01:39:21;;;;;;;;;;;;;;;15.52;68.14;100786.97;4977376;28;20087;-62
2021/08/25 01:42:11;;;;;;;;;;;;;;;15.51;68.29;100777.38;4962922;28;19929;-61
2021/08/25 01:45:01;;;;;;;;;;;;;;;15.49;68.26;100771.25;4962381;28;20432;-61
2021/08/25 01:47:48;;;;;;;;;;;;;;;15.48;68.30;100774.75;4962178;28;19924;-61
2021/08/25 01:50:40;;;;;;;;;;;;;;;15.47;68.05;100772.97;4962282;28;19925;-61
2021/08/25 01:53:25;;;;;;;;;;;;;;;15.46;68.37;100764.28;4961711;28;19968;-61
2021/08/25 01:56:14;;;;;;;;;;;;;;;15.46;68.27;100772.13;4962287;28;20008;-61
2021/08/25 01:59:02;;;;;;;;;;;;;;;15.46;68.38;100763.41;4962464;28;20057;-63
2021/08/25 02:01:54;;;;;;;;;;;;;;;15.46;68.37;100768.63;4962430;28;19972;-61
2021/08/25 02:04:39;;;;;;;;;;;;;;;15.45;68.43;100761.66;4961870;28;20436;-61
2021/08/25 02:07:28;;;;;;;;;;;;;;;15.44;68.33;100758.19;4962156;28;20028;-61
2021/08/25 02:10:19;;;;;;;;;;;;;;;15.43;68.40;100752.91;4962290;28;19933;-61
2021/08/25 02:13:06;;;;;;;;;;;;;;;15.43;68.38;100751.19;4961775;28;19925;-62
2021/08/25 02:15:59;;;;;;;;;;;;;;;15.41;68.44;100747.69;4961826;28;19925;-61
2021/08/25 02:18:51;;;;;;;;;;;;;;;15.40;68.38;100751.16;4975665;28;19941;-61
2021/08/25 02:21:37;;;;;;;;;;;;;;;15.40;68.29;100753.78;4961987;28;19929;-61
2021/08/25 02:24:30;;;;;;;;;;;;;;;15.38;68.36;100748.56;4961992;28;19964;-62
2021/08/25 02:27:17;;;;;;;;;;;;;;;15.37;68.35;100749.41;4961459;28;19940;-62
2021/08/25 02:30:01;;;;;;;;;;;;;;;15.38;68.42;100745.94;4976141;28;20049;-61
2021/08/25 02:32:44;;;;;;;;;;;;;;;15.37;68.43;100740.69;4961261;28;19933;-62
2021/08/25 02:35:34;;;;;;;;;;;;;;;15.36;68.24;100741.56;4975953;28;19925;-61
2021/08/25 02:38:18;;;;;;;;;;;;;;;15.35;68.57;100743.31;4961597;28;19925;-61
2021/08/25 02:41:03;;;;;;;;;;;;;;;15.35;68.22;100742.41;4975713;28;19929;-61
2021/08/25 02:43:47;;;;;;;;;;;;;;;15.33;68.49;100737.19;4976050;28;20432;-62
2021/08/25 02:46:42;;;;;;;;;;;;;;;15.34;68.26;100738.06;4976364;28;20381;-61
2021/08/25 02:49:26;;;;;;;;;;;;;;;15.32;68.34;100737.19;4961476;28;19972;-63
2021/08/25 02:52:13;;;;;;;;;;;;;;;15.31;68.50;100732.84;4975839;28;19925;-63
2021/08/25 02:55:05;;;;;;;;;;;;;;;15.31;68.48;100728.47;4961335;28;19960;-63
2021/08/25 02:57:52;;;;;;;;;;;;;;;15.27;68.52;100728.44;4961014;28;19925;-61
2021/08/25 03:00:44;;;;;;;;;;;;;;;15.28;68.37;100727.59;4975992;28;19929;-63
2021/08/25 03:03:37;;;;;;;;;;;;;;;15.27;68.52;100726.69;4960873;28;19925;-61
2021/08/25 03:06:21;;;;;;;;;;;;;;;15.26;68.38;100726.69;4961387;28;20009;-61
2021/08/25 03:09:08;;;;;;;;;;;;;;;15.23;68.27;100724.94;4975464;28;20049;-61
2021/08/25 03:11:55;;;;;;;;;;;;;;;15.20;68.51;100714.47;4975780;28;20290;-61
2021/08/25 03:14:42;;;;;;;;;;;;;;;15.19;68.48;100721.41;4960854;28;20397;-61
2021/08/25 03:17:34;;;;;;;;;;;;;;;15.20;68.38;100720.56;4975212;28;19973;-61
2021/08/25 03:20:18;;;;;;;;;;;;;;;15.19;68.36;100721.41;4960607;28;19968;-61
2021/08/25 03:23:02;;;;;;;;;;;;;;;15.18;68.45;100717.06;4975353;28;19937;-61
2021/08/25 03:25:46;;;;;;;;;;;;;;;15.19;68.45;100718.81;4976037;28;19925;-61
2021/08/25 03:28:30;;;;;;;;;;;;;;;15.18;68.54;100717.06;4975537;28;20289;-61
2021/08/25 03:31:14;;;;;;;;;;;;;;;15.16;68.60;100712.69;4974099;28;19925;-61
2021/08/25 03:34:06;;;;;;;;;;;;;;;15.15;68.51;100717.06;4974681;28;19964;-61
2021/08/25 03:36:53;;;;;;;;;;;;;;;15.16;68.55;100712.69;4960821;28;19924;-61
2021/08/25 03:39:43;;;;;;;;;;;;;;;15.15;68.44;100711.84;4975243;28;19924;-61
2021/08/25 03:42:30;;;;;;;;;;;;;;;15.15;68.56;100708.31;4960763;28;19928;-62
2021/08/25 03:45:20;;;;;;;;;;;;;;;15.12;68.61;100714.41;4974690;28;19925;-61
2021/08/25 03:48:09;;;;;;;;;;;;;;;15.12;68.45;100700.47;4960089;28;19925;-61
2021/08/25 03:50:53;;;;;;;;;;;;;;;15.11;68.58;100706.53;4960944;28;19984;-61
2021/08/25 03:53:45;;;;;;;;;;;;;;;15.09;68.61;100703.94;4974820;28;19924;-63
2021/08/25 03:56:30;;;;;;;;;;;;;;;15.09;68.55;100697.84;4960483;28;19972;-63
2021/08/25 03:59:19;;;;;;;;;;;;;;;15.07;68.63;100696.09;4974997;28;19960;-63
2021/08/25 04:02:03;;;;;;;;;;;;;;;15.07;68.57;100700.44;4959338;28;19925;-63
2021/08/25 04:04:47;;;;;;;;;;;;;;;15.06;68.69;100694.34;4974473;28;19973;-63
2021/08/25 04:07:31;;;;;;;;;;;;;;;15.04;68.60;100703.91;4975266;28;20423;-63
2021/08/25 04:10:15;;;;;;;;;;;;;;;15.02;68.49;100702.16;4975048;28;19933;-62
2021/08/25 04:13:05;;;;;;;;;;;;;;;15.00;68.64;100699.50;4960209;28;20331;-63
2021/08/25 04:15:49;;;;;;;;;;;;;;;14.98;68.61;100692.53;4960084;28;19925;-63
2021/08/25 04:18:35;;;;;;;;;;;;;;;14.98;68.68;100697.75;4974845;28;19972;-63
2021/08/25 04:21:25;;;;;;;;;;;;;;;14.97;68.68;100689.03;4975150;28;20277;-63
2021/08/25 04:24:12;;;;;;;;;;;;;;;14.96;68.62;100684.69;4959262;28;19940;-62
2021/08/25 04:27:05;;;;;;;;;;;;;;;14.97;68.58;100689.03;4960707;28;19972;-63
2021/08/25 04:29:54;;;;;;;;;;;;;;;14.97;68.61;100694.25;4960026;28;19926;-63
2021/08/25 04:32:38;;;;;;;;;;;;;;;14.94;68.65;100691.66;4959818;28;20057;-63
2021/08/25 04:35:25;;;;;;;;;;;;;;;14.94;68.61;100694.25;4974235;28;19925;-63
2021/08/25 04:38:09;;;;;;;;;;;;;;;14.95;68.61;100695.13;4960153;28;19925;-63
2021/08/25 04:40:58;;;;;;;;;;;;;;;14.92;68.73;100686.41;4960226;28;19981;-63
2021/08/25 04:43:44;;;;;;;;;;;;;;;14.92;68.78;100686.41;4963364;28;19925;-63
2021/08/25 04:46:37;;;;;;;;;;;;;;;14.91;68.86;100682.03;4977781;28;20427;-63
2021/08/25 04:49:27;;;;;;;;;;;;;;;14.90;68.69;100690.72;4963338;28;20030;-62
2021/08/25 04:52:13;;;;;;;;;;;;;;;14.88;68.62;100684.63;4963780;28;19992;-62
2021/08/25 04:55:03;;;;;;;;;;;;;;;14.88;68.77;100688.97;4978045;28;20000;-63
2021/08/25 04:57:48;;;;;;;;;;;;;;;14.85;68.75;100686.34;4963693;28;20016;-63
2021/08/25 05:00:32;;;;;;;;;;;;;;;14.86;68.74;100691.59;4963292;28;19968;-63
2021/08/25 05:03:21;;;;;;;;;;;;;;;14.85;68.86;100687.22;4977840;28;19992;-62
2021/08/25 05:06:08;;;;;;;;;;;;;;;14.84;68.74;100688.09;4962825;28;19928;-63
2021/08/25 05:08:55;;;;;;;;;;;;;;;14.84;68.73;100687.19;4963284;28;20392;-63
2021/08/25 05:11:39;;;;;;;;;;;;;;;14.83;68.98;100682.84;4977991;28;19924;-63
2021/08/25 05:14:23;;;;;;;;;;;;;;;14.83;68.82;100685.44;4977109;28;19925;-63
2021/08/25 05:17:07;;;;;;;;;;;;;;;14.82;68.98;100681.09;4977978;28;20289;-63
2021/08/25 05:19:57;;;;;;;;;;;;;;;14.83;68.87;100688.06;4963063;28;20403;-62
2021/08/25 05:22:41;;;;;;;;;;;;;;;14.83;68.80;100688.94;4962426;28;19964;-63
2021/08/25 05:25:25;;;;;;;;;;;;;;;14.83;68.88;100688.94;4962848;28;19925;-63
2021/08/25 05:28:12;;;;;;;;;;;;;;;14.83;68.94;100690.66;4962536;28;19924;-63
2021/08/25 05:30:56;;;;;;;;;;;;;;;14.81;68.76;100685.44;4962306;28;19929;-63
2021/08/25 05:33:40;;;;;;;;;;;;;;;14.83;68.89;100695.88;4962139;28;19924;-63
2021/08/25 05:36:32;;;;;;;;;;;;;;;14.83;68.98;100694.16;4962417;28;19924;-63
2021/08/25 05:39:16;;;;;;;;;;;;;;;14.84;69.00;100695.91;4962176;28;19929;-63
2021/08/25 05:42:05;;;;;;;;;;;;;;;14.85;68.93;100702.88;4962264;28;19925;-63
2021/08/25 05:44:52;;;;;;;;;;;;;;;14.86;68.90;100695.91;4962563;28;19925;-63
2021/08/25 05:47:36;;;;;;;;;;;;;;;14.87;69.08;100700.28;4977408;28;19925;-63
2021/08/25 05:50:20;;;;;;;;;;;;;;;14.85;69.08;100697.66;4977230;28;19925;-63
2021/08/25 05:53:10;;;;;;;;;;;;;;;14.88;68.89;100702.03;4961960;28;19968;-63
2021/08/25 05:55:57;;;;;;;;;;;;;;;14.89;68.94;100703.78;4961855;28;19940;-62
2021/08/25 05:58:44;;;;;;;;;;;;;;;14.90;69.06;100698.56;4962459;28;19934;-63
2021/08/25 06:01:28;;;;;;;;;;;;;;;14.90;69.11;100697.69;4961281;28;19925;-63
2021/08/25 06:04:21;;;;;;;;;;;;;;;14.91;69.11;100697.69;4976653;28;19965;-63
2021/08/25 06:07:08;;;;;;;;;;;;;;;14.93;69.18;100697.72;4962463;28;19973;-63
2021/08/25 06:09:55;;;;;;;;;;;;;;;14.94;69.15;100699.47;4976802;28;20322;-63
2021/08/25 06:12:39;;;;;;;;;;;;;;;14.96;69.13;100694.25;4961882;28;20324;-63
2021/08/25 06:15:23;;;;;;;;;;;;;;;14.96;69.20;100694.25;4976935;28;19973;-63
2021/08/25 06:18:07;;;;;;;;;;;;;;;14.98;69.27;100703.84;4976350;28;19969;-63
2021/08/25 06:20:51;;;;;;;;;;;;;;;14.99;69.16;100702.13;4961429;28;19941;-63
2021/08/25 06:23:38;;;;;;;;;;;;;;;15.00;69.30;100709.09;4976520;28;20383;-63
2021/08/25 06:26:25;;;;;;;;;;;;;;;15.01;69.16;100703.00;4976189;28;19925;-63
2021/08/25 06:29:12;;;;;;;;;;;;;;;15.01;69.30;100697.78;4976882;28;19925;-62
2021/08/25 06:31:58;;;;;;;;;;;;;;;15.02;69.35;100699.53;4961343;28;19929;-63
2021/08/25 06:34:42;;;;;;;;;;;;;;;15.04;69.17;100689.97;4961724;28;20329;-63
2021/08/25 06:37:29;;;;;;;;;;;;;;;15.04;69.32;100701.28;4976269;28;20285;-63
2021/08/25 06:40:13;;;;;;;;;;;;;;;15.05;69.39;100694.31;4976514;28;19940;-63
2021/08/25 06:42:57;;;;;;;;;;;;;;;15.08;69.33;100702.19;4961512;28;19925;-63
2021/08/25 06:45:49;;;;;;;;;;;;;;;15.09;69.43;100698.72;4976150;28;20016;-63
2021/08/25 06:48:45;;;;;;;;;;;;;;;15.09;69.25;100693.50;4960453;28;19972;-63
2021/08/25 06:51:33;;;;;;;;;;;;;;;15.11;69.37;100690.88;4961524;28;19968;-63
2021/08/25 06:54:17;;;;;;;;;;;;;;;15.13;69.45;100689.16;4960879;28;20398;-63
2021/08/25 06:57:00;;;;;;;;;;;;;;;15.14;69.49;100686.59;4975616;28;20285;-62
2021/08/25 06:59:44;;;;;;;;;;;;;;;15.15;69.39;100685.72;4961278;28;20018;-63
2021/08/25 07:02:28;;;;;;;;;;;;;;;15.16;69.57;100687.47;4975756;28;20001;-63
2021/08/25 07:05:18;;;;;;;;;;;;;;;15.17;69.67;100684.00;4975067;28;19925;-63
2021/08/25 07:08:04;;;;;;;;;;;;;;;15.18;69.59;100688.31;4975636;28;19968;-63
2021/08/25 07:10:52;;;;;;;;;;;;;;;15.18;69.43;100677.88;4960893;28;19924;-62
2021/08/25 07:13:44;;;;;;;;;;;;;;;15.20;69.71;100690.97;4960533;28;20016;-63
2021/08/25 07:16:33;;;;;;;;;;;;;;;15.21;69.52;100679.66;4960715;28;19980;-63
2021/08/25 07:19:17;;;;;;;;;;;;;;;15.23;69.48;100680.56;4975738;28;20433;-63
2021/08/25 07:22:01;;;;;;;;;;;;;;;15.25;69.60;100680.56;4975265;28;20021;-63
2021/08/25 07:24:45;;;;;;;;;;;;;;;15.26;69.49;100685.78;4975389;28;19972;-63
2021/08/25 07:27:31;;;;;;;;;;;;;;;15.27;69.65;100686.66;4975271;28;20396;-63
2021/08/25 07:30:16;;;;;;;;;;;;;;;15.28;69.72;100689.28;4975585;28;19937;-63
2021/08/25 07:33:00;;;;;;;;;;;;;;;15.30;69.78;100689.31;4975114;28;20444;-63
2021/08/25 07:35:48;;;;;;;;;;;;;;;15.31;69.52;100693.66;4975613;28;20008;-63
2021/08/25 07:38:34;;;;;;;;;;;;;;;15.33;69.62;100686.72;4960358;28;20017;-63
2021/08/25 07:41:19;;;;;;;;;;;;;;;15.34;69.58;100691.94;4960446;28;20017;-63
2021/08/25 07:44:12;;;;;;;;;;;;;;;15.34;69.58;100684.09;4975445;28;20278;-63
2021/08/25 07:46:56;;;;;;;;;;;;;;;15.35;69.82;100688.47;4960465;28;19928;-62
2021/08/25 07:49:40;;;;;;;;;;;;;;;15.36;69.66;100690.22;4975016;28;20282;-63
2021/08/25 07:52:24;;;;;;;;;;;;;;;15.37;69.81;100691.97;4975142;28;20304;-63
2021/08/25 07:55:08;;;;;;;;;;;;;;;15.39;69.74;100691.97;4960782;28;19948;-63
2021/08/25 07:57:52;;;;;;;;;;;;;;;15.41;69.82;100692.00;4974551;28;19965;-63
2021/08/25 08:00:36;;;;;;;;;;;;;;;15.40;69.74;100685.88;4974509;28;19930;-63
2021/08/25 08:03:20;;;;;;;;;;;;;;;15.42;69.72;100692.00;4960110;28;19925;-63
2021/08/25 08:06:04;;;;;;;;;;;;;;;15.44;69.66;100697.22;4974802;28;20301;-63
2021/08/25 08:08:51;;;;;;;;;;;;;;;15.44;69.50;100689.38;4974478;28;19941;-62
2021/08/25 08:11:34;;;;;;;;;;;;;;;15.44;69.53;100695.50;4974578;28;19972;-63
2021/08/25 08:14:27;;;;;;;;;;;;;;;15.46;69.48;100692.88;4974882;28;19925;-62
2021/08/25 08:17:19;;;;;;;;;;;;;;;15.47;69.66;100695.50;4975438;28;19925;-63
2021/08/25 08:20:04;;;;;;;;;;;;;;;15.48;69.64;100689.44;4978520;28;20004;-62
2021/08/25 08:22:51;;;;;;;;;;;;;;;15.49;69.69;100693.75;4964043;28;19968;-63
2021/08/25 08:25:35;;;;;;;;;;;;;;;15.50;69.56;100689.44;4964071;28;19924;-63
2021/08/25 08:28:19;;;;;;;;;;;;;;;15.51;69.70;100686.81;4978074;28;19924;-63
2021/08/25 08:31:03;;;;;;;;;;;;;;;15.52;69.76;100687.69;4978353;28;19969;-63
2021/08/25 08:33:50;;;;;;;;;;;;;;;15.55;69.67;100686.84;4963651;28;19925;-63
2021/08/25 08:36:34;;;;;;;;;;;;;;;15.56;69.76;100684.25;4963757;28;19925;-61
2021/08/25 08:39:19;;;;;;;;;;;;;;;15.58;69.79;100692.09;4978386;28;19929;-61
2021/08/25 08:42:03;;;;;;;;;;;;;;;15.60;69.74;100693.81;4963645;28;19925;-62
2021/08/25 08:44:53;;;;;;;;;;;;;;;15.62;69.68;100689.50;4978209;28;19925;-61
2021/08/25 08:47:37;;;;;;;;;;;;;;;15.64;69.79;100687.75;4977985;28;19968;-61
2021/08/25 08:50:24;;;;;;;;;;;;;;;15.66;69.77;100687.75;4978143;28;20401;-62
2021/08/25 08:53:14;;;;;;;;;;;;;;;15.68;69.72;100688.66;4977886;28;19956;-64
2021/08/25 08:56:04;;;;;;;;;;;;;;;15.70;69.91;100681.69;4963434;28;19925;-61
2021/08/25 08:58:48;;;;;;;;;;;;;;;15.73;69.72;100683.44;4963650;28;19960;-61
2021/08/25 09:01:33;;;;;;;;;;;;;;;15.75;69.88;100674.75;4977510;28;19957;-62
2021/08/25 09:04:31;;;;;;;;;;;;;;;15.76;69.83;100673.88;4977232;28;20012;-61
2021/08/25 09:07:26;;;;;;;;;;;;;;;15.79;69.75;100680.88;4963597;28;19972;-62
2021/08/25 09:10:13;;;;;;;;;;;;;;;15.81;69.81;100679.13;4963479;28;19925;-61
2021/08/25 09:13:01;;;;;;;;;;;;;;;15.83;69.72;100680.03;4963127;28;19944;-61
2021/08/25 09:15:46;;;;;;;;;;;;;;;15.84;69.54;100679.16;4963453;28;19924;-62
2021/08/25 09:18:32;;;;;;;;;;;;;;;15.84;69.70;100680.00;4977878;28;19925;-61
2021/08/25 09:21:31;;;;;;;;;;;;;;;15.88;69.75;100680.06;4977741;28;19934;-62
2021/08/25 09:24:15;;;;;;;;;;;;;;;15.90;69.89;100678.34;4963300;28;19984;-61
2021/08/25 09:27:12;;;;;;;;;;;;;;;15.91;69.67;100674.84;4963109;28;20339;-63
2021/08/25 09:30:05;;;;;;;;;;;;;;;15.92;69.83;100677.47;4977213;28;20479;-63
2021/08/25 09:32:52;;;;;;;;;;;;;;;15.94;69.85;100670.50;4962850;28;19965;-63
2021/08/25 09:35:39;;;;;;;;;;;;;;;15.97;69.65;100674.88;4976878;28;20309;-63
2021/08/25 09:38:32;;;;;;;;;;;;;;;16.00;69.71;100666.19;4962661;28;20000;-61
2021/08/25 09:41:25;;;;;;;;;;;;;;;16.00;69.56;100669.66;4962582;28;20293;-62
2021/08/25 09:44:15;;;;;;;;;;;;;;;16.02;69.76;100672.28;4962175;28;19925;-61
2021/08/25 09:47:05;;;;;;;;;;;;;;;16.04;69.68;100670.56;4976936;28;19925;-61
2021/08/25 09:50:10;;;;;;;;;;;;;;;16.04;69.58;100663.56;4961648;28;19940;-62
2021/08/25 09:53:00;;;;;;;;;;;;;;;16.07;69.54;100667.94;4962419;28;19972;-61
2021/08/25 09:55:44;;;;;;;;;;;;;;;16.08;69.59;100667.94;4962519;28;19972;-61
2021/08/25 09:58:28;;;;;;;;;;;;;;;16.11;69.73;100673.19;4977229;28;19980;-62
2021/08/25 10:01:24;;;;;;;;;;;;;;;16.12;69.52;100668.81;4976828;28;19924;-63
2021/08/25 10:04:14;;;;;;;;;;;;;;;16.13;69.53;100671.44;4962048;28;20380;-63
2021/08/25 10:06:58;;;;;;;;;;;;;;;16.13;69.63;100666.19;4962427;28;19941;-61
2021/08/25 10:09:41;;;;;;;;;;;;;;;16.14;69.65;100667.94;4976738;28;19972;-61
2021/08/25 10:12:28;;;;;;;;;;;;;;;16.15;69.49;100666.22;4962001;28;20425;-61
2021/08/25 10:15:31;;;;;;;;;;;;;;;16.16;69.65;100654.00;4962039;28;20269;-62
2021/08/25 10:18:21;;;;;;;;;;;;;;;16.17;69.47;100645.31;4976271;28;19941;-61
2021/08/25 10:21:23;;;;;;;;;;;;;;;16.18;69.58;100649.66;4976398;28;19925;-63
2021/08/25 10:24:13;;;;;;;;;;;;;;;16.21;69.55;100636.59;4976394;28;19941;-61
2021/08/25 10:27:06;;;;;;;;;;;;;;;16.22;69.41;100635.75;4962155;28;19925;-61
2021/08/25 10:30:05;;;;;;;;;;;;;;;16.23;69.40;100637.47;4962013;28;19924;-61
2021/08/25 10:32:52;;;;;;;;;;;;;;;16.24;69.45;100639.22;4976398;28;19925;-63
2021/08/25 10:35:47;;;;;;;;;;;;;;;16.24;69.54;100637.47;4976216;28;20396;-63
2021/08/25 10:38:43;;;;;;;;;;;;;;;16.26;69.64;100633.13;4976188;28;19925;-63
2021/08/25 10:41:33;;;;;;;;;;;;;;;16.26;69.37;100635.75;4961267;28;20362;-62
2021/08/25 10:44:36;;;;;;;;;;;;;;;16.27;69.43;100636.63;4960537;28;19980;-61
2021/08/25 10:47:39;;;;;;;;;;;;;;;16.28;69.35;100630.50;4976017;28;19925;-61
2021/08/25 10:50:24;;;;;;;;;;;;;;;16.28;69.23;100626.16;4961592;28;19972;-61
2021/08/25 10:53:27;;;;;;;;;;;;;;;16.29;69.22;100614.81;4960837;28;20436;-61
2021/08/25 10:56:11;;;;;;;;;;;;;;;16.33;69.17;100613.09;4975972;28;19972;-62
2021/08/25 10:58:58;;;;;;;;;;;;;;;16.35;69.12;100597.41;4961294;28;19940;-62
2021/08/25 11:01:43;;;;;;;;;;;;;;;16.34;69.23;100604.38;4961319;28;19924;-62
2021/08/25 11:04:30;;;;;;;;;;;;;;;16.34;69.21;100601.75;4956650;29;19941;-62
2021/08/25 11:07:17;;;;;;;;;;;;;;;16.36;69.24;100599.13;4955754;29;20329;-61
2021/08/25 11:10:04;;;;;;;;;;;;;;;16.35;69.08;100603.50;4955601;29;19925;-61
2021/08/25 11:12:56;;;;;;;;;;;;;;;16.37;69.25;100593.03;4955265;29;19925;-63
2021/08/25 11:15:40;;;;;;;;;;;;;;;16.37;69.08;100586.06;4954863;29;19925;-63
2021/08/25 11:18:34;;;;;;;;;;;;;;;16.39;69.25;100586.94;4956010;29;19960;-63
2021/08/25 11:21:21;;;;;;;;;;;;;;;16.39;68.99;100567.75;4955814;29;19926;-63
2021/08/25 11:24:08;;;;;;;;;;;;;;;16.41;69.10;100571.25;4955473;29;19942;-63
2021/08/25 11:26:55;;;;;;;;;;;;;;;16.41;68.93;100559.03;4955320;29;20342;-63
2021/08/25 11:29:45;;;;;;;;;;;;;;;16.42;68.96;100562.53;4956162;29;19926;-62
2021/08/25 11:32:32;;;;;;;;;;;;;;;16.42;68.92;100552.94;4954608;29;20302;-63
2021/08/25 11:35:37;;;;;;;;;;;;;;;16.43;69.05;100543.34;4955521;29;19929;-63
2021/08/25 11:38:21;;;;;;;;;;;;;;;16.43;68.90;100552.03;4954996;29;20389;-63
2021/08/25 11:41:05;;;;;;;;;;;;;;;16.43;69.13;100544.19;4955743;29;19925;-61
2021/08/25 11:43:49;;;;;;;;;;;;;;;16.43;68.78;100549.44;4956078;29;19926;-63
2021/08/25 11:46:36;;;;;;;;;;;;;;;16.43;68.80;100543.34;4955809;29;19924;-61
2021/08/25 11:49:23;;;;;;;;;;;;;;;16.42;69.00;100537.25;4941293;29;19977;-63
2021/08/25 11:52:11;;;;;;;;;;;;;;;16.44;68.80;100527.63;4954732;29;19989;-63
2021/08/25 11:55:01;;;;;;;;;;;;;;;16.44;68.96;100535.47;4954715;29;20392;-63
2021/08/25 11:57:45;;;;;;;;;;;;;;;16.46;68.74;100532.00;4955104;29;19924;-63
2021/08/25 12:00:39;;;;;;;;;;;;;;;16.46;68.66;100530.25;4955944;29;19972;-61
2021/08/25 12:03:42;;;;;;;;;;;;;;;16.47;68.58;100528.50;4960045;28;20029;-61
2021/08/25 12:06:41;;;;;;;;;;;;;;;16.46;68.85;100525.03;4975111;28;20017;-61
2021/08/25 12:09:34;;;;;;;;;;;;;;;16.47;68.52;100528.50;4960693;28;19925;-61
2021/08/25 12:12:44;;;;;;;;;;;;;;;16.48;68.51;100519.78;4960607;28;20053;-63
2021/08/25 12:16:00;;;;;;;;;;;;;;;16.48;68.53;100515.44;4974683;28;20452;-63
2021/08/25 12:18:48;;;;;;;;;;;;;;;16.49;68.40;100518.91;4942111;28;20055;-63
2021/08/25 12:21:40;;;;;;;;;;;;;;;16.49;68.45;100516.31;4960468;28;19969;-63
2021/08/25 12:24:24;;;;;;;;;;;;;;;16.50;68.60;100516.31;4960484;28;20389;-63
2021/08/25 12:27:08;;;;;;;;;;;;;;;16.50;68.52;100511.09;4974806;28;20397;-62
2021/08/25 12:29:55;;;;;;;;;;;;;;;16.51;68.49;100511.94;4960001;28;19925;-63
2021/08/25 12:32:45;;;;;;;;;;;;;;;16.50;68.52;100511.09;4960126;28;20017;-62
2021/08/25 12:35:30;;;;;;;;;;;;;;;16.51;68.52;100504.94;4960422;28;19969;-63
2021/08/25 12:38:13;;;;;;;;;;;;;;;16.53;68.33;100504.97;4974615;28;19925;-63
2021/08/25 12:41:06;;;;;;;;;;;;;;;16.54;68.34;100498.88;4959928;28;19968;-61
2021/08/25 12:43:59;;;;;;;;;;;;;;;16.55;68.40;100487.53;4960036;28;20297;-63
2021/08/25 12:46:59;;;;;;;;;;;;;;;16.55;68.33;100490.16;4974859;28;19925;-62
2021/08/25 12:49:43;;;;;;;;;;;;;;;16.55;68.23;100480.53;4959916;28;19925;-63
2021/08/25 12:52:30;;;;;;;;;;;;;;;16.56;68.35;100476.19;4974333;28;19968;-62
2021/08/25 12:55:17;;;;;;;;;;;;;;;16.56;68.41;100477.03;4959854;28;19925;-63
2021/08/25 12:58:04;;;;;;;;;;;;;;;16.56;68.33;100477.03;4974761;28;19925;-63
2021/08/25 13:00:51;;;;;;;;;;;;;;;16.57;68.17;100467.47;4959654;28;19925;-61
2021/08/25 13:03:41;;;;;;;;;;;;;;;16.58;68.08;100469.22;4975089;28;19934;-62
2021/08/25 13:06:30;;;;;;;;;;;;;;;16.58;68.13;100467.44;4963607;28;20017;-62
2021/08/25 13:09:17;;;;;;;;;;;;;;;16.58;68.03;100466.59;4963009;28;19973;-62
2021/08/25 13:12:04;;;;;;;;;;;;;;;16.61;67.92;100466.56;4962519;28;19941;-62
2021/08/25 13:14:48;;;;;;;;;;;;;;;16.62;67.97;100467.44;4977677;28;20028;-61
2021/08/25 13:17:33;;;;;;;;;;;;;;;16.59;68.03;100466.59;4977594;28;20020;-63
2021/08/25 13:20:19;;;;;;;;;;;;;;;16.62;67.73;100457.84;4977611;28;19929;-62
2021/08/25 13:23:03;;;;;;;;;;;;;;;16.62;67.83;100460.47;4962818;28;20018;-61
2021/08/25 13:25:48;;;;;;;;;;;;;;;16.61;67.78;100450.88;4977383;28;19964;-61
2021/08/25 13:28:38;;;;;;;;;;;;;;;16.63;67.84;100443.03;4977729;28;20366;-61
2021/08/25 13:31:25;;;;;;;;;;;;;;;16.63;67.98;100441.28;4977678;28;19973;-61
2021/08/25 13:34:14;;;;;;;;;;;;;;;16.65;67.74;100436.06;4962630;28;20004;-61
2021/08/25 13:36:58;;;;;;;;;;;;;;;16.66;67.65;100428.19;4962665;28;19925;-61
2021/08/25 13:39:42;;;;;;;;;;;;;;;16.68;67.74;100429.06;4962644;28;19925;-61
2021/08/25 13:42:26;;;;;;;;;;;;;;;16.69;67.81;100419.44;4962938;28;19925;-61
2021/08/25 13:45:13;;;;;;;;;;;;;;;16.70;67.84;100410.72;4977064;28;19925;-61
2021/08/25 13:47:57;;;;;;;;;;;;;;;16.71;67.53;100408.13;4962247;28;19953;-61
2021/08/25 13:50:43;;;;;;;;;;;;;;;16.71;67.81;100404.59;4976625;28;19934;-62
2021/08/25 13:53:27;;;;;;;;;;;;;;;16.72;67.72;100409.84;4962452;28;20332;-61
2021/08/25 13:56:13;;;;;;;;;;;;;;;16.72;67.62;100412.47;4977192;28;19925;-61
2021/08/25 13:59:06;;;;;;;;;;;;;;;16.74;67.71;100421.16;4976974;28;19940;-61
2021/08/25 14:01:55;;;;;;;;;;;;;;;16.74;67.72;100415.94;4962600;28;19932;-62
2021/08/25 14:04:39;;;;;;;;;;;;;;;16.75;67.62;100411.59;4962280;28;19924;-61
2021/08/25 14:07:23;;;;;;;;;;;;;;;16.77;67.55;100406.34;4977039;28;19952;-61
2021/08/25 14:10:07;;;;;;;;;;;;;;;16.77;67.61;100401.09;4976561;28;19929;-61
2021/08/25 14:12:57;;;;;;;;;;;;;;;16.77;67.39;100395.84;4976958;28;19925;-61
2021/08/25 14:15:43;;;;;;;;;;;;;;;16.77;67.48;100394.13;4961045;28;20437;-62
2021/08/25 14:18:27;;;;;;;;;;;;;;;16.78;67.37;100392.38;4961238;28;20012;-61
2021/08/25 14:21:15;;;;;;;;;;;;;;;16.78;67.38;100394.97;4976788;28;19924;-61
2021/08/25 14:24:03;;;;;;;;;;;;;;;16.77;67.23;100391.50;4976423;28;19965;-61